Terminal Aerodrome Forecast
Issued by NWS

Home | Current Version | Previous Version | Text Only | Print | Product List | Glossary On
Versions: 1 2 3 4 5 6 7 8 9 10 11 12 13 14 15 16 17 18 19 20 21 22 23 24
000
FTUS45 KLKN 270520
TAFWMC
TAF
KWMC 270520Z 2706/2806 12007KT P6SM FEW150 SCT250
     FM271200 VRB04KT P6SM SCT080 BKN150
     FM271800 20006KT P6SM VCSH SCT040 BKN060
      TEMPO 2722/2802 4SM -RA BR SCT015 BKN025=

USA.gov is the U.S. government's official web portal to all federal, state and local government web resources and services.